Time;durP1;ratioP1;P1;durP2;ratioP2;P2;SDS_P1;SDS_P2;PMS_P1;PMS_P2;Temp;Humidity;BMP_temperature;BMP_pressure;BME280_temperature;BME280_humidity;BME280_pressure;Samples;Min_cycle;Max_cycle;Signal;HPM_P1;HPM_P2
2022/07/10 00:00:08;;;;;;;4.78;3.17;;;;;;;17.74;78.83;96751.53;4877389;29;20053;-78
2022/07/10 00:02:34;;;;;;;4.47;3.20;;;;;;;17.75;79.32;96747.66;4877806;29;20045;-78
2022/07/10 00:05:01;;;;;;;3.88;3.15;;;;;;;17.72;79.31;96753.81;4876539;29;20060;-77
2022/07/10 00:07:27;;;;;;;4.70;3.47;;;;;;;17.68;79.63;96752.91;4877616;29;20041;-78
2022/07/10 00:09:54;;;;;;;5.13;3.95;;;;;;;17.64;80.42;96752.03;4877776;29;20071;-78
2022/07/10 00:12:22;;;;;;;7.03;4.13;;;;;;;17.59;79.94;96769.63;4877024;29;20048;-77
2022/07/10 00:14:48;;;;;;;5.75;4.07;;;;;;;17.53;80.33;96772.97;4877437;29;20049;-76
2022/07/10 00:17:15;;;;;;;6.07;4.10;;;;;;;17.47;80.35;96764.97;4876891;29;20053;-78
2022/07/10 00:19:41;;;;;;;4.22;3.83;;;;;;;17.48;80.57;96769.31;4877282;29;20045;-77
2022/07/10 00:22:08;;;;;;;6.03;4.57;;;;;;;17.44;80.88;96771.19;4876822;29;20045;-77
2022/07/10 00:24:47;;;;;;;4.97;4.50;;;;;;;17.44;81.08;96778.66;5029432;28;20760;-76
2022/07/10 00:27:14;;;;;;;3.92;3.53;;;;;;;17.45;81.46;96778.31;5024249;28;20045;-77
2022/07/10 00:29:41;;;;;;;5.40;4.40;;;;;;;17.41;81.01;96771.09;5024125;28;20045;-78
2022/07/10 00:32:08;;;;;;;5.50;4.90;;;;;;;17.38;81.04;96771.78;5023490;28;20073;-76
2022/07/10 00:34:35;;;;;;;6.82;4.93;;;;;;;17.26;80.78;96764.41;5023633;28;20049;-76
2022/07/10 00:37:02;;;;;;;5.65;4.88;;;;;;;17.29;80.76;96769.22;5023484;28;20091;-76
2022/07/10 00:39:28;;;;;;;6.30;4.70;;;;;;;17.28;81.24;96773.13;5023802;28;20042;-77
2022/07/10 00:42:06;;;;;;;5.28;4.78;;;;;;;17.22;81.50;96769.00;5023717;28;20076;-76
2022/07/10 00:44:32;;;;;;;9.27;5.28;;;;;;;17.21;81.83;96775.66;5023580;28;20057;-76
2022/07/10 00:47:00;;;;;;;8.45;6.25;;;;;;;17.15;81.61;96779.81;5023563;28;20605;-76
2022/07/10 00:49:26;;;;;;;6.35;5.40;;;;;;;17.13;81.43;96773.88;5023093;28;20432;-76
2022/07/10 00:51:54;;;;;;;7.20;6.00;;;;;;;17.12;82.09;96764.00;5023732;28;20049;-78
2022/07/10 00:54:21;;;;;;;10.35;6.75;;;;;;;16.95;82.14;96776.91;5021574;28;23189;-79
2022/07/10 00:56:48;;;;;;;11.18;6.72;;;;;;;16.85;83.20;96774.63;5023429;28;20053;-78
2022/07/10 00:59:16;;;;;;;8.43;6.68;;;;;;;16.77;83.92;96781.09;5023262;28;20045;-77
2022/07/10 01:01:43;;;;;;;9.55;6.95;;;;;;;16.70;84.55;96780.81;5023606;28;20042;-77
2022/07/10 01:04:10;;;;;;;10.23;7.57;;;;;;;16.51;85.45;96777.91;5022926;28;20049;-77
2022/07/10 01:06:36;;;;;;;10.52;7.78;;;;;;;16.42;86.20;96780.75;5023680;28;20056;-78
2022/07/10 01:09:04;;;;;;;11.98;7.43;;;;;;;16.28;87.60;96781.09;5022892;28;20053;-77
2022/07/10 01:11:34;;;;;;;10.80;8.10;;;;;;;16.28;87.65;96767.38;5023254;28;20054;-78
2022/07/10 01:14:01;;;;;;;8.90;6.60;;;;;;;16.28;88.11;96770.13;5023687;28;20069;-77
2022/07/10 01:16:29;;;;;;;10.68;7.15;;;;;;;16.26;88.42;96760.63;5023126;28;20047;-75
2022/07/10 01:18:56;;;;;;;6.18;5.57;;;;;;;16.30;88.89;96762.34;5023037;28;20054;-79
2022/07/10 01:21:28;;;;;;;9.93;7.00;;;;;;;16.27;89.10;96760.28;5022945;28;20049;-78
2022/07/10 01:23:55;;;;;;;9.00;7.22;;;;;;;16.20;89.38;96751.81;5022643;28;20460;-76
2022/07/10 01:26:23;;;;;;;9.55;6.82;;;;;;;16.10;89.97;96757.78;5022639;28;20084;-78
2022/07/10 01:28:52;;;;;;;10.38;6.88;;;;;;;15.97;90.39;96761.66;5023254;28;20450;-75
2022/07/10 01:31:19;;;;;;;8.80;6.63;;;;;;;15.78;90.89;96752.03;5022721;28;20056;-76
2022/07/10 01:33:45;;;;;;;7.97;6.13;;;;;;;15.64;92.38;96757.03;5023179;28;20042;-76
2022/07/10 01:36:12;;;;;;;9.23;6.78;;;;;;;15.62;92.20;96753.81;5008953;28;20493;-75
2022/07/10 01:38:40;;;;;;;7.85;6.35;;;;;;;15.64;92.38;96751.56;5009574;28;20416;-76
2022/07/10 01:41:08;;;;;;;7.82;6.22;;;;;;;15.56;92.67;96744.22;5009394;28;20099;-76
2022/07/10 01:43:34;;;;;;;6.78;6.07;;;;;;;15.48;92.67;96742.34;5009808;28;20099;-76
2022/07/10 01:46:01;;;;;;;8.43;6.43;;;;;;;15.34;92.90;96743.44;5009921;28;20042;-76
2022/07/10 01:48:28;;;;;;;8.93;6.60;;;;;;;15.29;93.43;96732.69;5009557;28;20045;-76
2022/07/10 01:50:54;;;;;;;11.07;6.43;;;;;;;15.23;93.79;96728.56;5009598;28;20501;-76
2022/07/10 01:53:21;;;;;;;8.52;6.07;;;;;;;15.25;94.46;96731.78;5009054;28;20046;-76
2022/07/10 01:55:49;;;;;;;9.18;6.53;;;;;;;15.25;95.08;96734.53;5021733;28;20052;-76
2022/07/10 01:58:15;;;;;;;8.70;6.43;;;;;;;15.26;95.33;96732.59;5028963;28;20093;-78
2022/07/10 02:00:42;;;;;;;8.05;6.47;;;;;;;15.26;95.30;96733.38;5029394;28;20041;-76
2022/07/10 02:05:54;;;;;;;8.73;6.88;;;;;;;15.13;94.62;96727.03;5011417;28;20081;-78
2022/07/10 02:08:21;;;;;;;7.55;6.75;;;;;;;15.16;95.08;96738.50;5028789;28;20053;-78
2022/07/10 02:10:49;;;;;;;8.70;7.63;;;;;;;15.22;95.94;96720.69;5029288;28;20522;-78
2022/07/10 02:13:19;;;;;;;9.20;7.63;;;;;;;15.09;95.54;96725.34;5028478;28;20050;-79
2022/07/10 02:15:46;;;;;;;8.70;7.68;;;;;;;15.00;95.42;96716.38;5029195;28;20049;-78
2022/07/10 02:18:13;;;;;;;10.80;8.27;;;;;;;14.91;95.88;96710.97;5028440;28;20049;-79
2022/07/10 02:20:39;;;;;;;9.75;7.93;;;;;;;14.88;95.87;96709.72;5029135;28;20045;-78
2022/07/10 02:23:06;;;;;;;10.73;7.97;;;;;;;14.72;97.07;96716.16;5028054;28;20045;-78
2022/07/10 02:25:33;;;;;;;12.82;8.75;;;;;;;14.64;97.54;96708.81;5018274;28;20107;-76
2022/07/10 02:28:01;;;;;;;11.80;8.43;;;;;;;14.57;98.03;96709.34;5009017;28;20053;-78
2022/07/10 02:30:28;;;;;;;10.20;7.70;;;;;;;14.67;97.69;96711.69;5008808;28;20041;-79
2022/07/10 02:32:54;;;;;;;10.68;9.50;;;;;;;14.72;97.20;96722.44;5009067;28;20053;-78
2022/07/10 02:35:21;;;;;;;9.57;7.15;;;;;;;14.78;97.42;96732.06;5008719;28;20519;-75
2022/07/10 02:37:47;;;;;;;8.88;7.40;;;;;;;14.92;97.87;96725.47;5008946;28;20046;-75
2022/07/10 02:40:14;;;;;;;8.35;7.38;;;;;;;15.00;97.90;96727.34;5008590;28;20046;-77
2022/07/10 02:42:41;;;;;;;9.23;7.85;;;;;;;15.03;97.70;96730.22;5008967;28;20128;-76
2022/07/10 02:45:10;;;;;;;8.85;7.70;;;;;;;15.10;98.02;96732.44;5008526;28;20050;-78
2022/07/10 02:47:36;;;;;;;10.27;7.88;;;;;;;15.03;97.33;96732.16;5007793;28;20046;-77
2022/07/10 02:50:04;;;;;;;12.00;7.78;;;;;;;15.06;97.09;96723.25;5008323;28;20046;-79
2022/07/10 02:52:31;;;;;;;8.15;6.70;;;;;;;15.05;96.75;96718.91;5008798;28;20042;-76
2022/07/10 02:54:59;;;;;;;9.98;7.70;;;;;;;14.99;96.55;96721.06;5008405;28;20053;-76
2022/07/10 02:57:25;;;;;;;9.80;7.78;;;;;;;14.91;97.02;96719.19;5008280;28;20052;-77
2022/07/10 02:59:52;;;;;;;15.18;8.45;;;;;;;14.87;97.13;96721.00;5008551;28;20042;-76
2022/07/10 03:02:20;;;;;;;9.27;7.70;;;;;;;14.87;97.44;96721.81;5007865;28;20523;-76
2022/07/10 03:04:47;;;;;;;12.57;8.60;;;;;;;14.94;97.33;96717.75;5008413;28;20042;-76
2022/07/10 03:07:13;;;;;;;9.85;8.00;;;;;;;14.91;97.14;96718.41;5008233;28;20489;-76
2022/07/10 03:09:40;;;;;;;10.90;7.78;;;;;;;14.90;96.98;96720.34;5008352;28;20049;-76
2022/07/10 03:12:07;;;;;;;9.63;8.40;;;;;;;14.86;97.18;96725.69;5007924;28;20050;-77
2022/07/10 03:14:34;;;;;;;12.70;7.75;;;;;;;14.82;97.55;96722.00;5008281;28;20050;-76
2022/07/10 03:17:00;;;;;;;10.23;8.85;;;;;;;14.85;97.20;96721.34;5008478;28;20042;-76
2022/07/10 03:19:28;;;;;;;9.90;8.30;;;;;;;14.88;97.04;96715.22;5007763;28;20046;-76
2022/07/10 03:21:55;;;;;;;9.77;7.55;;;;;;;14.98;96.96;96718.66;5008314;28;20042;-76
2022/07/10 03:24:22;;;;;;;9.15;7.88;;;;;;;14.99;nan;96720.28;5010242;28;20049;-76
2022/07/10 03:26:48;;;;;;;7.85;6.85;;;;;;;15.01;96.18;96718.00;5111278;27;20069;-77
2022/07/10 03:29:15;;;;;;;7.50;6.70;;;;;;;14.97;95.51;96717.06;5110964;28;20040;-76
2022/07/10 03:31:41;;;;;;;9.65;7.57;;;;;;;14.95;95.09;96722.09;5111395;28;20045;-77
2022/07/10 03:34:08;;;;;;;8.60;7.70;;;;;;;14.93;95.10;96716.94;5110526;27;20046;-77
2022/07/10 03:36:36;;;;;;;8.52;7.40;;;;;;;14.85;94.74;96715.88;5111299;28;20058;-77
2022/07/10 03:39:02;;;;;;;9.85;6.90;;;;;;;14.86;94.68;96714.72;5110861;28;20075;-76
2022/07/10 03:41:29;;;;;;;7.88;7.07;;;;;;;14.80;95.24;96716.06;5110810;28;20050;-76
2022/07/10 03:43:55;;;;;;;8.85;7.68;;;;;;;14.82;94.97;96718.47;5110996;28;20074;-76
2022/07/10 03:46:22;;;;;;;8.20;6.20;;;;;;;14.83;95.12;96715.41;5110602;27;20048;-76
2022/07/10 03:48:49;;;;;;;9.15;7.82;;;;;;;14.62;95.49;96711.91;5110890;28;20043;-76
2022/07/10 03:51:15;;;;;;;11.68;8.00;;;;;;;14.63;95.96;96713.50;5110450;28;20439;-76
2022/07/10 03:53:43;;;;;;;10.27;8.10;;;;;;;14.65;96.20;96716.69;5110880;28;20154;-76
2022/07/10 03:57:53;;;;;;;9.52;8.23;;;;;;;14.76;96.27;96717.88;5107502;27;20046;-76
2022/07/10 03:58:55;;;;;;;10.05;7.75;;;;;;;14.74;96.15;96714.69;5110363;28;20055;-78
2022/07/10 04:01:22;;;;;;;9.57;7.18;;;;;;;14.81;96.15;96709.44;5110445;28;20047;-76
2022/07/10 04:03:48;;;;;;;8.88;7.13;;;;;;;14.83;95.99;96711.88;5110743;28;20267;-76
2022/07/10 04:06:15;;;;;;;9.75;6.72;;;;;;;14.88;96.15;96704.25;5110131;27;20050;-78
2022/07/10 04:08:43;;;;;;;9.23;6.93;;;;;;;14.88;95.50;96701.50;5110713;28;20047;-76
2022/07/10 04:11:09;;;;;;;8.75;7.40;;;;;;;14.93;95.42;96710.63;5110162;28;20051;-76
2022/07/10 04:13:36;;;;;;;8.00;7.03;;;;;;;14.92;94.84;96706.28;5110641;28;20047;-75
2022/07/10 04:16:04;;;;;;;8.68;7.00;;;;;;;14.94;94.48;96706.78;5110212;28;20043;-76
2022/07/10 04:18:30;;;;;;;9.93;8.25;;;;;;;14.82;94.50;96716.53;5110741;28;20035;-76
2022/07/10 04:20:57;;;;;;;8.90;6.88;;;;;;;14.88;94.81;96714.41;5110609;28;20072;-76
2022/07/10 04:23:23;;;;;;;8.95;7.82;;;;;;;14.86;94.96;96711.19;5109728;28;20043;-77
2022/07/10 04:25:51;;;;;;;9.43;6.95;;;;;;;14.90;95.01;96716.81;5042237;28;20069;-76
2022/07/10 04:28:18;;;;;;;8.88;7.55;;;;;;;14.88;94.75;96719.91;5007065;28;20046;-76
2022/07/10 04:30:44;;;;;;;12.52;8.13;;;;;;;14.88;95.42;96708.94;5007242;28;20058;-76
2022/07/10 04:33:11;;;;;;;8.90;7.57;;;;;;;14.94;95.07;96712.25;5006699;28;20049;-77
2022/07/10 04:35:37;;;;;;;11.75;8.50;;;;;;;14.82;94.92;96711.03;5007322;28;20042;-77
2022/07/10 04:38:04;;;;;;;9.77;8.20;;;;;;;14.78;95.66;96712.09;5006802;28;20038;-77
2022/07/10 04:40:30;;;;;;;10.15;8.65;;;;;;;14.71;96.13;96714.53;5007119;28;20046;-75
2022/07/10 04:42:58;;;;;;;10.70;9.00;;;;;;;14.52;97.36;96718.56;5007304;28;20049;-78
2022/07/10 04:45:25;;;;;;;9.02;8.13;;;;;;;14.67;97.05;96717.19;5006725;28;20046;-78
2022/07/10 04:47:52;;;;;;;10.48;9.23;;;;;;;14.63;97.46;96724.47;5007052;28;20050;-78
2022/07/10 04:50:18;;;;;;;13.02;9.25;;;;;;;14.57;97.79;96720.31;5006695;28;20049;-78
2022/07/10 04:52:45;;;;;;;11.38;9.25;;;;;;;14.59;98.15;96729.78;5007140;28;20053;-77
2022/07/10 04:55:11;;;;;;;12.13;9.35;;;;;;;14.51;98.45;96743.56;5006257;28;20041;-78
2022/07/10 04:57:38;;;;;;;11.43;10.07;;;;;;;14.34;100.00;96741.72;5006855;28;20439;-77
2022/07/10 05:00:08;;;;;;;12.90;10.43;;;;;;;14.47;100.00;96737.97;5006567;28;20057;-77
2022/07/10 05:02:35;;;;;;;13.10;9.93;;;;;;;14.49;99.10;96745.84;5006900;28;20519;-78
2022/07/10 05:05:01;;;;;;;11.13;9.73;;;;;;;14.45;98.71;96744.88;5006330;28;20050;-77
2022/07/10 05:07:28;;;;;;;13.15;9.70;;;;;;;14.59;98.78;96745.44;5006992;28;20046;-78
2022/07/10 05:09:54;;;;;;;11.85;8.98;;;;;;;14.68;97.66;96740.69;5007855;28;20050;-79
2022/07/10 05:12:21;;;;;;;10.75;8.32;;;;;;;14.81;96.27;96736.06;5009862;28;20062;-78
2022/07/10 05:14:47;;;;;;;10.70;9.18;;;;;;;14.72;96.04;96736.16;5010271;28;20045;-77
2022/07/10 05:17:15;;;;;;;12.40;10.52;;;;;;;14.54;98.31;96737.41;5009735;28;20053;-78
2022/07/10 05:19:42;;;;;;;12.32;10.43;;;;;;;14.39;99.35;96741.53;5010203;28;20397;-78
2022/07/10 05:22:09;;;;;;;11.55;9.85;;;;;;;14.48;99.00;96744.25;5009533;28;20057;-78
2022/07/10 05:24:36;;;;;;;12.27;10.48;;;;;;;14.27;100.00;96742.25;5011872;28;20050;-77
2022/07/10 05:27:03;;;;;;;11.85;10.60;;;;;;;14.39;100.00;96743.47;5029494;28;20099;-78
2022/07/10 05:29:29;;;;;;;13.88;11.75;;;;;;;14.30;100.00;96751.72;5029313;28;20492;-78
2022/07/10 05:31:56;;;;;;;13.55;10.90;;;;;;;14.47;100.00;96753.56;5029580;28;20045;-79
2022/07/10 05:34:24;;;;;;;12.48;11.18;;;;;;;14.30;100.00;96752.56;5029289;28;20045;-79
2022/07/10 05:36:50;;;;;;;15.95;11.45;;;;;;;14.29;100.00;96753.66;5029772;28;20042;-79
2022/07/10 05:39:17;;;;;;;15.80;12.45;;;;;;;14.39;100.00;96752.47;5028987;28;20041;-78
2022/07/10 05:41:44;;;;;;;11.63;10.25;;;;;;;14.51;100.00;96765.47;5029545;28;20053;-77
2022/07/10 05:44:10;;;;;;;14.95;11.35;;;;;;;14.57;100.00;96756.75;5028883;28;20056;-78
2022/07/10 05:46:37;;;;;;;12.55;10.50;;;;;;;14.61;99.19;96756.84;5029466;28;20056;-79
2022/07/10 05:49:03;;;;;;;13.60;11.80;;;;;;;14.62;99.35;96766.72;5029030;28;20052;-77
2022/07/10 05:51:31;;;;;;;14.30;10.95;;;;;;;14.49;99.44;96756.81;5029509;28;20053;-77
2022/07/10 05:53:59;;;;;;;13.20;10.80;;;;;;;14.35;100.00;96752.38;5029343;28;20484;-78
2022/07/10 05:56:25;;;;;;;20.23;12.55;;;;;;;14.48;100.00;96755.19;5010927;28;20050;-77
2022/07/10 05:58:55;;;;;;;13.98;10.70;;;;;;;14.50;98.79;96755.66;5009442;28;20070;-78
2022/07/10 06:01:22;;;;;;;13.65;10.98;;;;;;;14.27;98.40;96747.72;5008916;28;20477;-77
2022/07/10 06:03:48;;;;;;;14.05;12.18;;;;;;;14.39;99.22;96746.19;5009406;28;20076;-78
2022/07/10 06:06:15;;;;;;;18.23;12.55;;;;;;;14.38;99.49;96752.81;5009000;28;20050;-78
2022/07/10 06:08:44;;;;;;;15.65;11.77;;;;;;;14.42;99.89;96751.03;5009372;28;20534;-77
2022/07/10 06:11:11;;;;;;;17.05;13.00;;;;;;;14.51;98.87;96754.50;5008785;28;20050;-77
2022/07/10 06:13:37;;;;;;;12.80;11.30;;;;;;;14.67;98.12;96754.72;5009282;28;20078;-77
2022/07/10 06:16:05;;;;;;;13.32;11.30;;;;;;;14.49;96.20;96757.59;5008778;28;20050;-77
2022/07/10 06:18:32;;;;;;;15.52;11.70;;;;;;;14.52;95.35;96756.16;5009444;28;20053;-77
2022/07/10 06:20:58;;;;;;;16.42;11.98;;;;;;;14.50;96.76;96756.47;5009241;28;20046;-77
2022/07/10 06:23:25;;;;;;;14.75;11.60;;;;;;;14.60;95.80;96753.31;5008576;28;20042;-78
2022/07/10 06:25:53;;;;;;;15.20;11.35;;;;;;;14.68;93.82;96748.13;5009007;28;20393;-78
2022/07/10 06:28:19;;;;;;;14.00;12.50;;;;;;;14.79;93.54;96749.31;5008561;28;20050;-78
2022/07/10 06:30:47;;;;;;;13.95;12.45;;;;;;;14.66;93.11;96740.22;5008888;28;20049;-76
2022/07/10 06:33:13;;;;;;;15.23;12.55;;;;;;;14.59;94.16;96754.47;5008528;28;20520;-78
2022/07/10 06:35:40;;;;;;;17.17;12.75;;;;;;;14.55;94.45;96755.47;5008979;28;20408;-78
2022/07/10 06:38:06;;;;;;;15.23;13.27;;;;;;;14.48;95.01;96752.47;5008343;28;20046;-78
2022/07/10 06:40:37;;;;;;;14.65;12.82;;;;;;;14.46;94.91;96760.16;5008763;28;20054;-78
2022/07/10 06:43:05;;;;;;;13.32;11.88;;;;;;;14.61;94.05;96756.84;5008493;28;20053;-78
2022/07/10 06:45:32;;;;;;;15.52;12.00;;;;;;;14.51;92.96;96760.00;5008719;28;20048;-77
2022/07/10 06:47:58;;;;;;;14.38;11.52;;;;;;;14.73;92.30;96767.13;5008457;28;20052;-78
2022/07/10 06:50:26;;;;;;;13.85;12.43;;;;;;;14.95;92.54;96763.22;5008361;28;20046;-78
2022/07/10 06:52:53;;;;;;;13.82;12.40;;;;;;;15.19;92.13;96760.59;5008472;28;20066;-77
2022/07/10 06:55:20;;;;;;;14.43;11.63;;;;;;;15.35;91.57;96755.25;5016268;28;20052;-79
2022/07/10 06:57:47;;;;;;;14.05;12.65;;;;;;;15.30;89.84;96766.44;5028417;28;20061;-78
2022/07/10 07:00:15;;;;;;;15.18;12.07;;;;;;;15.19;88.63;96763.31;5027753;28;20048;-78
2022/07/10 07:02:42;;;;;;;13.82;11.98;;;;;;;15.13;89.81;96764.66;5028240;28;20061;-77
2022/07/10 07:05:10;;;;;;;12.80;11.45;;;;;;;15.08;89.96;96770.34;5027400;28;20423;-79
2022/07/10 07:07:36;;;;;;;14.20;11.73;;;;;;;15.33;89.96;96769.28;5027874;28;20431;-79
2022/07/10 07:10:04;;;;;;;15.43;12.35;;;;;;;15.63;89.90;96766.44;5027959;28;20053;-78
2022/07/10 07:12:31;;;;;;;15.00;11.65;;;;;;;15.62;86.98;96765.59;5027996;28;20049;-79
2022/07/10 07:14:57;;;;;;;11.68;10.38;;;;;;;15.83;87.91;96773.78;5027984;28;20045;-79
2022/07/10 07:17:34;;;;;;;11.02;9.75;;;;;;;15.95;85.55;96772.19;5028035;28;20558;-78
2022/07/10 07:25:34;;;;;;;10.57;8.60;;;;;;;15.85;84.46;96787.97;5026917;28;20186;-78
2022/07/10 07:28:01;;;;;;;9.35;8.45;;;;;;;16.05;83.96;96782.72;5027692;28;20045;-78
2022/07/10 07:30:27;;;;;;;11.07;8.27;;;;;;;16.14;83.45;96780.69;5027324;28;20045;-78
2022/07/10 07:32:55;;;;;;;12.68;8.63;;;;;;;16.18;83.10;96779.66;5026817;28;20041;-77
2022/07/10 07:35:22;;;;;;;10.25;8.57;;;;;;;16.18;83.73;96792.56;5027076;28;20050;-78
2022/07/10 07:37:50;;;;;;;13.02;9.32;;;;;;;16.18;85.09;96798.06;5027301;28;20049;-79
2022/07/10 07:40:21;;;;;;;10.77;9.13;;;;;;;16.24;82.12;96790.41;5027004;28;20061;-79
2022/07/10 07:42:48;;;;;;;9.75;8.40;;;;;;;16.11;80.76;96792.34;5027375;28;20098;-78
2022/07/10 07:45:15;;;;;;;10.15;9.15;;;;;;;15.85;82.36;96785.22;5027153;28;20045;-78
2022/07/10 07:47:46;;;;;;;8.73;7.90;;;;;;;16.06;82.20;96789.81;5027711;28;20052;-77
2022/07/10 07:50:15;;;;;;;12.18;8.95;;;;;;;16.12;83.16;96794.72;5027086;28;20538;-78
2022/07/10 07:52:41;;;;;;;10.93;8.60;;;;;;;16.00;81.76;96786.50;5027663;28;20397;-78
2022/07/10 07:55:10;;;;;;;13.30;9.75;;;;;;;16.28;84.11;96789.34;5019451;28;20069;-78
2022/07/10 07:57:36;;;;;;;9.90;8.90;;;;;;;16.31;81.93;96794.16;5007771;28;20049;-78
2022/07/10 08:00:04;;;;;;;9.70;8.70;;;;;;;16.28;80.17;96792.09;5007083;28;20069;-78
2022/07/10 08:02:31;;;;;;;8.73;7.72;;;;;;;16.25;79.00;96795.56;5007694;28;20090;-78
2022/07/10 08:04:57;;;;;;;12.00;9.70;;;;;;;16.27;82.38;96779.50;5007433;28;20050;-79
2022/07/10 08:07:34;;;;;;;10.75;9.65;;;;;;;16.53;83.61;96781.88;5007350;28;20515;-79
2022/07/10 08:10:00;;;;;;;9.57;8.68;;;;;;;16.40;79.12;96785.81;5007482;28;20054;-77
2022/07/10 08:12:27;;;;;;;8.98;7.80;;;;;;;16.83;81.22;96790.69;5007307;28;20046;-78
2022/07/10 08:14:53;;;;;;;8.15;7.00;;;;;;;17.14;77.08;96775.47;5007371;28;20049;-78
2022/07/10 08:17:21;;;;;;;9.65;6.93;;;;;;;17.94;79.24;96778.03;5007147;28;20053;-78
2022/07/10 08:19:48;;;;;;;6.75;5.68;;;;;;;17.93;71.17;96787.44;5007419;28;20646;-77
2022/07/10 08:22:14;;;;;;;7.38;4.60;;;;;;;18.21;70.16;96781.03;5006886;28;20049;-78
2022/07/10 08:24:42;;;;;;;4.95;3.50;;;;;;;18.24;66.94;96780.31;5006893;28;20049;-78
2022/07/10 08:27:09;;;;;;;4.72;3.58;;;;;;;18.43;67.02;96776.84;5006658;28;20120;-79
2022/07/10 08:29:36;;;;;;;7.13;3.90;;;;;;;18.18;66.94;96776.25;5007380;28;20046;-78
2022/07/10 08:32:02;;;;;;;8.40;5.28;;;;;;;17.34;72.66;96776.41;5006845;28;20050;-78
2022/07/10 08:34:29;;;;;;;8.95;4.80;;;;;;;17.03;73.84;96779.88;5007205;28;20049;-78
2022/07/10 08:36:56;;;;;;;7.25;4.07;;;;;;;17.58;74.68;96778.22;5007266;28;20053;-79
2022/07/10 08:39:22;;;;;;;4.45;2.75;;;;;;;17.73;68.96;96781.03;5006801;28;20053;-77
2022/07/10 08:41:50;;;;;;;6.15;2.90;;;;;;;18.21;68.01;96776.31;5007037;28;20057;-77
2022/07/10 08:44:17;;;;;;;10.43;2.78;;;;;;;18.67;66.55;96781.31;5006670;28;20046;-77
2022/07/10 08:46:44;;;;;;;6.13;2.65;;;;;;;18.07;65.82;96777.94;5010661;28;20171;-77
2022/07/10 08:49:13;;;;;;;4.28;2.05;;;;;;;17.85;65.74;96769.13;5010110;28;20046;-78
2022/07/10 08:51:46;;;;;;;4.35;2.00;;;;;;;17.17;66.87;96783.00;5010481;28;20050;-78
2022/07/10 08:54:14;;;;;;;5.20;2.10;;;;;;;17.29;67.75;96785.72;5010031;28;20050;-78
2022/07/10 08:56:42;;;;;;;4.18;2.13;;;;;;;17.74;66.93;96779.06;5010209;28;20050;-78
2022/07/10 08:59:13;;;;;;;4.07;2.15;;;;;;;18.11;66.00;96789.84;5010002;28;20087;-78
2022/07/10 09:01:39;;;;;;;6.90;2.30;;;;;;;18.43;69.53;96779.59;5010509;28;20053;-79
2022/07/10 09:04:06;;;;;;;4.13;1.90;;;;;;;18.73;65.83;96783.44;5010038;28;20053;-76
2022/07/10 09:06:32;;;;;;;4.00;2.20;;;;;;;18.78;64.65;96785.94;5010251;28;20050;-75
2022/07/10 09:09:04;;;;;;;6.43;2.30;;;;;;;18.87;61.00;96782.97;5010092;28;20045;-77
2022/07/10 09:11:31;;;;;;;5.80;1.83;;;;;;;18.86;60.87;96778.63;5009784;28;20105;-78
2022/07/10 09:14:02;;;;;;;6.35;2.10;;;;;;;19.25;62.46;96778.63;5010186;28;20061;-76
2022/07/10 09:16:33;;;;;;;5.30;2.13;;;;;;;19.07;59.58;96783.00;5010028;28;20048;-77
2022/07/10 09:19:16;;;;;;;2.80;1.90;;;;;;;18.55;59.34;96790.50;5010019;28;20069;-76
2022/07/10 09:21:43;;;;;;;;;;;;;;;18.49;62.07;96778.97;5010401;28;20046;-76
2022/07/10 09:24:09;;;;;;;5.32;1.75;;;;;;;18.19;61.47;96795.19;5009354;28;20383;-77
2022/07/10 09:26:37;;;;;;;7.38;2.10;;;;;;;18.19;64.33;96784.16;5009874;28;20054;-76
2022/07/10 09:29:08;;;;;;;5.57;1.85;;;;;;;18.46;62.13;96787.94;5009557;28;20049;-76
2022/07/10 09:31:52;;;;;;;6.25;2.20;;;;;;;18.61;61.64;96782.75;5009708;28;20463;-76
2022/07/10 09:34:18;;;;;;;4.30;1.70;;;;;;;18.69;61.94;96781.81;5009481;28;20053;-77
2022/07/10 09:36:45;;;;;;;4.63;1.70;;;;;;;18.75;57.69;96786.66;5009883;28;20061;-77
2022/07/10 09:39:11;;;;;;;3.53;1.83;;;;;;;18.92;60.68;96785.44;5009349;28;20069;-76
2022/07/10 09:41:42;;;;;;;3.90;1.73;;;;;;;19.42;59.24;96785.66;5009998;28;20045;-77
2022/07/10 09:44:09;;;;;;;4.18;1.40;;;;;;;18.33;57.51;96786.47;5009056;28;20050;-77
2022/07/10 09:46:40;;;;;;;3.55;1.65;;;;;;;18.60;58.98;96775.66;5009125;28;20681;-77
2022/07/10 09:49:10;;;;;;;5.13;1.83;;;;;;;18.74;58.07;96787.84;5009180;28;20053;-76
2022/07/10 09:51:39;;;;;;;5.38;1.60;;;;;;;18.80;56.46;96777.31;5009641;28;20141;-75
2022/07/10 09:54:09;;;;;;;2.45;1.50;;;;;;;19.21;56.48;96786.03;5009066;28;20405;-78
2022/07/10 09:56:43;;;;;;;2.25;1.50;;;;;;;19.42;55.94;96777.38;5027576;28;20072;-78
2022/07/10 09:59:12;;;;;;;2.88;1.40;;;;;;;19.64;55.27;96775.88;5028887;28;20049;-78
2022/07/10 10:01:45;;;;;;;5.38;1.50;;;;;;;19.69;54.22;96783.84;5029343;28;20060;-76
2022/07/10 10:04:13;;;;;;;2.97;1.33;;;;;;;19.50;52.60;96784.63;5028699;28;20041;-77
2022/07/10 10:06:41;;;;;;;3.25;1.27;;;;;;;19.59;54.44;96767.84;5029157;28;20045;-77
2022/07/10 10:09:12;;;;;;;4.15;1.30;;;;;;;19.58;55.83;96767.06;5028436;28;20049;-77
2022/07/10 10:11:42;;;;;;;3.53;1.35;;;;;;;19.79;55.64;96763.91;5028635;28;20056;-77
2022/07/10 10:14:09;;;;;;;3.33;1.58;;;;;;;19.68;54.51;96768.41;5028291;28;20393;-76
2022/07/10 10:16:36;;;;;;;4.20;1.40;;;;;;;19.59;51.97;96765.09;5029007;28;20045;-77
2022/07/10 10:21:50;;;;;;;5.10;1.48;;;;;;;19.98;52.98;96768.56;5028969;28;20102;-77
2022/07/10 10:24:18;;;;;;;3.97;1.73;;;;;;;19.82;51.11;96768.69;5027697;28;20049;-78
2022/07/10 10:26:46;;;;;;;3.38;1.50;;;;;;;19.03;52.35;96769.91;4989550;28;20050;-76
2022/07/10 10:29:12;;;;;;;3.55;1.65;;;;;;;19.26;54.29;96763.66;4989208;28;20053;-77
2022/07/10 10:31:40;;;;;;;4.43;1.45;;;;;;;19.45;53.50;96757.31;4989532;28;20047;-77
2022/07/10 10:34:07;;;;;;;3.38;1.40;;;;;;;19.72;51.03;96767.31;4988865;28;20043;-77
2022/07/10 10:36:47;;;;;;;4.70;1.30;;;;;;;19.97;54.98;96759.47;4989516;28;20046;-76
2022/07/10 10:39:20;;;;;;;4.35;1.70;;;;;;;19.26;51.71;96758.97;4988870;28;20046;-76
2022/07/10 10:41:52;;;;;;;3.53;1.50;;;;;;;19.27;51.91;96757.00;4989394;28;20046;-77
2022/07/10 10:44:36;;;;;;;2.60;1.30;;;;;;;19.25;52.03;96759.31;4988907;28;20630;-76
2022/07/10 10:47:07;;;;;;;4.20;1.38;;;;;;;18.84;52.82;96755.28;4988663;28;20061;-79
2022/07/10 10:49:59;;;;;;;2.38;1.25;;;;;;;18.85;54.67;96754.16;4989260;28;20050;-76
2022/07/10 10:52:26;;;;;;;2.05;1.50;;;;;;;19.04;54.45;96760.47;4988580;28;20046;-76
2022/07/10 10:55:11;;;;;;;9.07;1.55;;;;;;;18.68;54.63;96758.09;4994258;28;20091;-76
2022/07/10 10:57:45;;;;;;;3.65;1.38;;;;;;;18.66;54.44;96760.41;5008306;28;20049;-75
2022/07/10 11:00:33;;;;;;;4.57;1.20;;;;;;;18.85;54.38;96760.47;5008326;28;20417;-75
2022/07/10 11:03:20;;;;;;;4.43;1.30;;;;;;;18.82;53.47;96765.91;5008640;28;20103;-77
2022/07/10 11:05:48;;;;;;;4.05;1.60;;;;;;;18.77;50.30;96754.00;5008359;28;20413;-76
2022/07/10 11:08:41;;;;;;;4.38;1.13;;;;;;;18.95;53.04;96756.31;5006902;28;20050;-76
2022/07/10 11:11:40;;;;;;;3.28;1.45;;;;;;;19.08;55.15;96759.75;5008031;28;20069;-77
2022/07/10 11:14:09;;;;;;;2.65;1.38;;;;;;;18.81;52.04;96754.06;5007810;28;20042;-77
2022/07/10 11:16:35;;;;;;;2.63;1.25;;;;;;;18.92;53.42;96759.81;5008190;28;20056;-76
2022/07/10 11:19:03;;;;;;;2.42;1.10;;;;;;;19.11;54.81;96764.56;5007910;28;20166;-75
2022/07/10 11:21:48;;;;;;;3.53;1.13;;;;;;;19.05;50.40;96758.50;5008276;28;20433;-76
2022/07/10 11:24:34;;;;;;;2.97;1.10;;;;;;;18.95;50.12;96754.38;5007926;28;20069;-76
2022/07/10 11:27:12;;;;;;;2.75;1.10;;;;;;;18.96;48.73;96753.22;4988754;28;20049;-76
2022/07/10 11:29:39;;;;;;;5.15;1.10;;;;;;;18.92;48.86;96749.56;4988616;28;20049;-76
2022/07/10 11:32:08;;;;;;;2.30;0.90;;;;;;;19.01;48.97;96752.13;4988007;28;20133;-76
2022/07/10 11:34:36;;;;;;;4.25;1.15;;;;;;;19.12;46.65;96766.16;4988182;28;20050;-76
2022/07/10 11:37:14;;;;;;;4.40;1.40;;;;;;;18.99;48.14;96758.00;4988184;28;20050;-75
2022/07/10 11:39:43;;;;;;;5.45;1.30;;;;;;;18.96;50.25;96767.00;4988584;28;20089;-75
2022/07/10 11:42:10;;;;;;;1.50;0.93;;;;;;;19.18;48.72;96762.72;4987541;28;20047;-76
2022/07/10 11:44:40;;;;;;;2.20;1.00;;;;;;;19.12;50.89;96763.38;4988522;28;20070;-76